sensor_id;sensor_type;location;lat;lon;timestamp;pressure;altitude;pressure_sealevel;temperature;humidity
61337;BME280;47212;41.326;2.104;2024-01-11T00:02:47;101551.31;;;8.25;79.91
61337;BME280;47212;41.326;2.104;2024-01-11T00:07:50;101555.00;;;8.12;79.61
61337;BME280;47212;41.326;2.104;2024-01-11T00:12:55;101562.25;;;8.00;80.86
61337;BME280;47212;41.326;2.104;2024-01-11T00:18:00;101548.16;;;7.91;80.32
61337;BME280;47212;41.326;2.104;2024-01-11T00:23:03;101548.22;;;7.85;80.52
61337;BME280;47212;41.326;2.104;2024-01-11T00:28:08;101544.09;;;7.82;80.44
61337;BME280;47212;41.326;2.104;2024-01-11T00:33:11;101542.44;;;7.81;81.16
61337;BME280;47212;41.326;2.104;2024-01-11T00:38:13;101526.38;;;7.80;81.06
61337;BME280;47212;41.326;2.104;2024-01-11T00:43:16;101536.19;;;7.81;81.76
61337;BME280;47212;41.326;2.104;2024-01-11T00:48:18;101530.13;;;7.79;81.12
61337;BME280;47212;41.326;2.104;2024-01-11T00:53:20;101532.00;;;7.78;82.75
61337;BME280;47212;41.326;2.104;2024-01-11T00:58:24;101531.19;;;7.78;81.46
61337;BME280;47212;41.326;2.104;2024-01-11T01:03:30;101533.28;;;7.76;80.93
61337;BME280;47212;41.326;2.104;2024-01-11T01:08:33;101541.19;;;7.77;82.10
61337;BME280;47212;41.326;2.104;2024-01-11T01:13:35;101549.53;;;7.76;81.15
61337;BME280;47212;41.326;2.104;2024-01-11T01:18:38;101558.72;;;7.75;80.38
61337;BME280;47212;41.326;2.104;2024-01-11T01:23:40;101567.09;;;7.73;82.67
61337;BME280;47212;41.326;2.104;2024-01-11T01:28:43;101584.41;;;7.72;80.81
61337;BME280;47212;41.326;2.104;2024-01-11T01:33:46;101577.09;;;7.73;80.60
61337;BME280;47212;41.326;2.104;2024-01-11T01:38:48;101588.53;;;7.75;80.60
61337;BME280;47212;41.326;2.104;2024-01-11T01:43:51;101584.56;;;7.77;80.57
61337;BME280;47212;41.326;2.104;2024-01-11T01:48:57;101593.72;;;7.83;80.13
61337;BME280;47212;41.326;2.104;2024-01-11T01:54:02;101589.03;;;7.90;80.36
61337;BME280;47212;41.326;2.104;2024-01-11T01:59:06;101588.16;;;7.96;80.03
61337;BME280;47212;41.326;2.104;2024-01-11T02:04:08;101589.97;;;8.02;79.96
61337;BME280;47212;41.326;2.104;2024-01-11T02:09:13;101600.97;;;8.07;80.03
61337;BME280;47212;41.326;2.104;2024-01-11T02:14:20;101610.31;;;8.11;80.18
61337;BME280;47212;41.326;2.104;2024-01-11T02:22:35;101612.56;;;8.14;80.29
61337;BME280;47212;41.326;2.104;2024-01-11T02:27:48;101616.72;;;8.17;80.58
61337;BME280;47212;41.326;2.104;2024-01-11T02:32:53;101615.22;;;8.21;80.52
61337;BME280;47212;41.326;2.104;2024-01-11T02:37:57;101623.13;;;8.22;80.41
61337;BME280;47212;41.326;2.104;2024-01-11T02:43:09;101624.56;;;8.25;81.22
61337;BME280;47212;41.326;2.104;2024-01-11T02:48:12;101631.03;;;8.24;80.61
61337;BME280;47212;41.326;2.104;2024-01-11T02:53:20;101620.84;;;8.19;80.76
61337;BME280;47212;41.326;2.104;2024-01-11T02:58:26;101613.78;;;8.18;80.59
61337;BME280;47212;41.326;2.104;2024-01-11T03:03:29;101614.59;;;8.19;80.25
61337;BME280;47212;41.326;2.104;2024-01-11T03:08:31;101616.47;;;8.18;80.73
61337;BME280;47212;41.326;2.104;2024-01-11T03:13:33;101616.72;;;8.17;82.08
61337;BME280;47212;41.326;2.104;2024-01-11T03:18:36;101610.47;;;8.16;81.75
61337;BME280;47212;41.326;2.104;2024-01-11T03:23:41;101601.28;;;8.17;81.08
61337;BME280;47212;41.326;2.104;2024-01-11T03:28:43;101599.16;;;8.19;81.20
61337;BME280;47212;41.326;2.104;2024-01-11T03:33:46;101608.13;;;8.20;81.74
61337;BME280;47212;41.326;2.104;2024-01-11T03:38:49;101614.16;;;8.22;82.01
61337;BME280;47212;41.326;2.104;2024-01-11T03:43:57;101611.22;;;8.23;81.17
61337;BME280;47212;41.326;2.104;2024-01-11T03:49:04;101613.47;;;8.26;81.79
61337;BME280;47212;41.326;2.104;2024-01-11T03:54:06;101608.66;;;8.28;82.67
61337;BME280;47212;41.326;2.104;2024-01-11T03:59:10;101622.81;;;8.30;81.00
61337;BME280;47212;41.326;2.104;2024-01-11T04:04:13;101619.06;;;8.31;81.00
61337;BME280;47212;41.326;2.104;2024-01-11T04:09:15;101628.25;;;8.30;81.20
61337;BME280;47212;41.326;2.104;2024-01-11T04:14:17;101624.47;;;8.31;81.21
61337;BME280;47212;41.326;2.104;2024-01-11T04:19:20;101631.13;;;8.36;80.79
61337;BME280;47212;41.326;2.104;2024-01-11T04:24:25;101643.66;;;8.37;81.39
61337;BME280;47212;41.326;2.104;2024-01-11T04:29:27;101644.03;;;8.40;81.59
61337;BME280;47212;41.326;2.104;2024-01-11T04:34:30;101647.13;;;8.44;80.97
61337;BME280;47212;41.326;2.104;2024-01-11T04:39:32;101650.44;;;8.46;80.72
61337;BME280;47212;41.326;2.104;2024-01-11T04:44:38;101661.44;;;8.51;80.22
61337;BME280;47212;41.326;2.104;2024-01-11T04:49:40;101663.69;;;8.54;79.56
61337;BME280;47212;41.326;2.104;2024-01-11T04:54:43;101663.25;;;8.57;79.75
61337;BME280;47212;41.326;2.104;2024-01-11T04:59:45;101653.00;;;8.59;78.87
61337;BME280;47212;41.326;2.104;2024-01-11T05:04:49;101650.88;;;8.61;79.26
61337;BME280;47212;41.326;2.104;2024-01-11T05:10:01;101662.94;;;8.65;78.74
61337;BME280;47212;41.326;2.104;2024-01-11T05:15:15;101655.44;;;8.67;78.37
61337;BME280;47212;41.326;2.104;2024-01-11T05:35:13;101670.47;;;8.63;77.36
61337;BME280;47212;41.326;2.104;2024-01-11T05:42:32;101674.84;;;8.64;76.77
61337;BME280;47212;41.326;2.104;2024-01-11T05:47:41;101679.44;;;8.63;76.66
61337;BME280;47212;41.326;2.104;2024-01-11T05:52:52;101681.34;;;8.63;77.20
61337;BME280;47212;41.326;2.104;2024-01-11T05:58:14;101676.34;;;8.60;76.49
61337;BME280;47212;41.326;2.104;2024-01-11T06:03:26;101672.81;;;8.59;77.23
61337;BME280;47212;41.326;2.104;2024-01-11T06:08:30;101669.28;;;8.59;76.89
61337;BME280;47212;41.326;2.104;2024-01-11T06:13:51;101677.41;;;8.59;77.08
61337;BME280;47212;41.326;2.104;2024-01-11T06:19:08;101684.72;;;8.58;76.85
61337;BME280;47212;41.326;2.104;2024-01-11T06:24:15;101683.91;;;8.58;78.00
61337;BME280;47212;41.326;2.104;2024-01-11T06:29:26;101671.38;;;8.57;78.44
61337;BME280;47212;41.326;2.104;2024-01-11T06:34:37;101677.25;;;8.54;79.30
61337;BME280;47212;41.326;2.104;2024-01-11T06:39:49;101693.78;;;8.52;78.72
61337;BME280;47212;41.326;2.104;2024-01-11T06:45:00;101697.75;;;8.50;78.36
61337;BME280;47212;41.326;2.104;2024-01-11T06:50:08;101690.69;;;8.49;78.11
61337;BME280;47212;41.326;2.104;2024-01-11T06:55:17;101696.09;;;8.49;78.13
61337;BME280;47212;41.326;2.104;2024-01-11T07:00:21;101696.56;;;8.46;77.68
61337;BME280;47212;41.326;2.104;2024-01-11T07:05:30;101703.63;;;8.47;77.52
61337;BME280;47212;41.326;2.104;2024-01-11T07:10:43;101710.72;;;8.48;78.06
61337;BME280;47212;41.326;2.104;2024-01-11T07:16:05;101717.22;;;8.47;78.24
61337;BME280;47212;41.326;2.104;2024-01-11T07:21:23;101717.66;;;8.44;78.12
61337;BME280;47212;41.326;2.104;2024-01-11T07:26:42;101719.75;;;8.42;78.17
61337;BME280;47212;41.326;2.104;2024-01-11T07:31:50;101724.13;;;8.43;78.20
61337;BME280;47212;41.326;2.104;2024-01-11T07:36:57;101715.56;;;8.46;77.76
61337;BME280;47212;41.326;2.104;2024-01-11T07:42:23;101723.31;;;8.42;77.70
61337;BME280;47212;41.326;2.104;2024-01-11T07:47:30;101726.19;;;8.47;77.25
61337;BME280;47212;41.326;2.104;2024-01-11T07:52:38;101737.03;;;8.47;76.56
61337;BME280;47212;41.326;2.104;2024-01-11T07:57:56;101735.16;;;8.48;76.73
61337;BME280;47212;41.326;2.104;2024-01-11T08:03:01;101745.78;;;8.49;76.13
61337;BME280;47212;41.326;2.104;2024-01-11T08:08:18;101754.75;;;8.50;75.96
61337;BME280;47212;41.326;2.104;2024-01-11T08:13:25;101765.59;;;8.50;76.59
61337;BME280;47212;41.326;2.104;2024-01-11T08:18:30;101769.97;;;8.51;75.66
61337;BME280;47212;41.326;2.104;2024-01-11T08:23:37;101767.88;;;8.53;75.51
61337;BME280;47212;41.326;2.104;2024-01-11T08:28:47;101782.88;;;8.55;75.29
61337;BME280;47212;41.326;2.104;2024-01-11T08:34:16;101790.34;;;8.60;75.17
61337;BME280;47212;41.326;2.104;2024-01-11T08:39:25;101785.06;;;8.65;74.64
61337;BME280;47212;41.326;2.104;2024-01-11T08:44:27;101797.47;;;8.79;74.60
61337;BME280;47212;41.326;2.104;2024-01-11T08:49:32;101812.13;;;8.97;73.62
61337;BME280;47212;41.326;2.104;2024-01-11T08:54:42;101811.75;;;9.30;72.75
61337;BME280;47212;41.326;2.104;2024-01-11T08:59:53;101818.06;;;9.90;70.38
61337;BME280;47212;41.326;2.104;2024-01-11T09:05:05;101818.59;;;10.40;69.02
61337;BME280;47212;41.326;2.104;2024-01-11T09:10:20;101822.16;;;10.88;66.42
61337;BME280;47212;41.326;2.104;2024-01-11T09:15:28;101825.84;;;11.85;64.78
61337;BME280;47212;41.326;2.104;2024-01-11T09:20:36;101830.13;;;11.81;63.44
61337;BME280;47212;41.326;2.104;2024-01-11T09:25:42;101842.56;;;12.17;63.10
61337;BME280;47212;41.326;2.104;2024-01-11T09:30:45;101843.88;;;12.82;61.85
61337;BME280;47212;41.326;2.104;2024-01-11T09:35:48;101848.59;;;12.69;62.27
61337;BME280;47212;41.326;2.104;2024-01-11T09:41:14;101851.25;;;12.48;60.60
61337;BME280;47212;41.326;2.104;2024-01-11T09:46:27;101851.41;;;12.74;61.30
61337;BME280;47212;41.326;2.104;2024-01-11T09:51:34;101848.22;;;13.16;61.15
61337;BME280;47212;41.326;2.104;2024-01-11T09:56:46;101853.34;;;13.73;59.71
61337;BME280;47212;41.326;2.104;2024-01-11T10:01:59;101859.00;;;14.15;58.18
61337;BME280;47212;41.326;2.104;2024-01-11T10:07:08;101866.19;;;14.48;58.14
61337;BME280;47212;41.326;2.104;2024-01-11T10:12:16;101858.34;;;14.30;58.22
61337;BME280;47212;41.326;2.104;2024-01-11T10:17:20;101870.53;;;13.90;58.50
61337;BME280;47212;41.326;2.104;2024-01-11T10:22:27;101877.72;;;13.96;58.20
61337;BME280;47212;41.326;2.104;2024-01-11T10:27:31;101874.06;;;14.13;56.92
61337;BME280;47212;41.326;2.104;2024-01-11T10:32:37;101882.03;;;13.92;57.70
61337;BME280;47212;41.326;2.104;2024-01-11T10:38:02;101877.63;;;14.13;57.09
61337;BME280;47212;41.326;2.104;2024-01-11T10:43:25;101878.09;;;14.64;56.56
61337;BME280;47212;41.326;2.104;2024-01-11T10:48:38;101872.91;;;14.68;56.36
61337;BME280;47212;41.326;2.104;2024-01-11T10:53:45;101859.84;;;14.75;56.03
61337;BME280;47212;41.326;2.104;2024-01-11T10:58:57;101858.38;;;14.99;54.38
61337;BME280;47212;41.326;2.104;2024-01-11T11:04:07;101857.50;;;15.41;54.35
61337;BME280;47212;41.326;2.104;2024-01-11T11:09:15;101857.09;;;15.17;53.97
61337;BME280;47212;41.326;2.104;2024-01-11T11:14:24;101865.78;;;14.66;54.86
61337;BME280;47212;41.326;2.104;2024-01-11T11:19:32;101861.03;;;14.25;55.82
61337;BME280;47212;41.326;2.104;2024-01-11T11:24:39;101853.59;;;13.93;56.15
61337;BME280;47212;41.326;2.104;2024-01-11T11:29:48;101844.50;;;13.66;56.50
61337;BME280;47212;41.326;2.104;2024-01-11T11:34:58;101837.97;;;13.45;56.96
61337;BME280;47212;41.326;2.104;2024-01-11T11:40:38;101834.16;;;13.24;56.79
61337;BME280;47212;41.326;2.104;2024-01-11T11:45:51;101830.69;;;13.12;57.63
61337;BME280;47212;41.326;2.104;2024-01-11T11:51:14;101819.94;;;13.05;58.16
61337;BME280;47212;41.326;2.104;2024-01-11T11:56:25;101817.13;;;13.00;58.36
61337;BME280;47212;41.326;2.104;2024-01-11T12:01:35;101816.13;;;12.90;57.78
61337;BME280;47212;41.326;2.104;2024-01-11T12:06:45;101811.66;;;12.84;58.41
61337;BME280;47212;41.326;2.104;2024-01-11T12:11:59;101811.59;;;12.79;58.66
61337;BME280;47212;41.326;2.104;2024-01-11T12:17:17;101809.09;;;12.77;57.89
61337;BME280;47212;41.326;2.104;2024-01-11T12:22:32;101802.31;;;12.80;58.41
61337;BME280;47212;41.326;2.104;2024-01-11T12:27:47;101788.22;;;12.88;58.94
61337;BME280;47212;41.326;2.104;2024-01-11T12:33:17;101783.97;;;12.97;58.78
61337;BME280;47212;41.326;2.104;2024-01-11T12:38:25;101791.44;;;13.01;58.63
61337;BME280;47212;41.326;2.104;2024-01-11T12:43:29;101785.63;;;12.98;58.68
61337;BME280;47212;41.326;2.104;2024-01-11T12:48:44;101791.59;;;12.95;58.05
61337;BME280;47212;41.326;2.104;2024-01-11T12:53:48;101778.19;;;12.93;57.54
61337;BME280;47212;41.326;2.104;2024-01-11T12:59:08;101786.63;;;12.92;56.77
61337;BME280;47212;41.326;2.104;2024-01-11T13:04:35;101777.88;;;12.90;57.60
61337;BME280;47212;41.326;2.104;2024-01-11T13:09:40;101772.41;;;12.90;57.30
61337;BME280;47212;41.326;2.104;2024-01-11T13:14:48;101775.13;;;12.90;57.53
61337;BME280;47212;41.326;2.104;2024-01-11T13:19:59;101775.97;;;12.90;57.70
61337;BME280;47212;41.326;2.104;2024-01-11T13:25:23;101787.13;;;12.89;57.45
61337;BME280;47212;41.326;2.104;2024-01-11T13:30:30;101776.53;;;12.92;57.63
61337;BME280;47212;41.326;2.104;2024-01-11T13:35:38;101776.34;;;12.99;57.55
61337;BME280;47212;41.326;2.104;2024-01-11T13:40:44;101788.59;;;13.13;57.93
61337;BME280;47212;41.326;2.104;2024-01-11T13:45:50;101780.22;;;13.20;57.72
61337;BME280;47212;41.326;2.104;2024-01-11T13:50:59;101782.78;;;13.26;57.23
61337;BME280;47212;41.326;2.104;2024-01-11T13:56:10;101789.13;;;13.32;57.83
61337;BME280;47212;41.326;2.104;2024-01-11T14:01:20;101795.75;;;13.36;57.18
61337;BME280;47212;41.326;2.104;2024-01-11T14:06:29;101799.94;;;13.44;57.40
61337;BME280;47212;41.326;2.104;2024-01-11T14:11:42;101795.50;;;13.64;57.30
61337;BME280;47212;41.326;2.104;2024-01-11T14:16:51;101791.78;;;13.76;56.62
61337;BME280;47212;41.326;2.104;2024-01-11T14:22:06;101803.69;;;13.86;56.69
61337;BME280;47212;41.326;2.104;2024-01-11T14:27:12;101791.72;;;13.92;55.83
61337;BME280;47212;41.326;2.104;2024-01-11T14:32:24;101794.47;;;13.92;56.20
61337;BME280;47212;41.326;2.104;2024-01-11T14:37:42;101805.94;;;13.89;55.87
61337;BME280;47212;41.326;2.104;2024-01-11T14:42:48;101809.66;;;13.83;55.94
61337;BME280;47212;41.326;2.104;2024-01-11T14:47:52;101822.97;;;13.75;56.07
61337;BME280;47212;41.326;2.104;2024-01-11T14:52:56;101819.88;;;13.66;55.73
61337;BME280;47212;41.326;2.104;2024-01-11T14:58:11;101826.88;;;13.57;55.93
61337;BME280;47212;41.326;2.104;2024-01-11T15:03:34;101828.69;;;13.46;55.77
61337;BME280;47212;41.326;2.104;2024-01-11T15:08:48;101830.78;;;13.39;56.13
61337;BME280;47212;41.326;2.104;2024-01-11T15:13:56;101835.34;;;13.33;55.90
61337;BME280;47212;41.326;2.104;2024-01-11T15:19:10;101834.16;;;13.24;55.16
61337;BME280;47212;41.326;2.104;2024-01-11T15:24:20;101851.56;;;13.18;56.25
61337;BME280;47212;41.326;2.104;2024-01-11T15:29:27;101851.41;;;13.08;56.08
61337;BME280;47212;41.326;2.104;2024-01-11T15:34:37;101863.72;;;12.94;56.27
61337;BME280;47212;41.326;2.104;2024-01-11T15:39:46;101860.09;;;12.88;56.32
61337;BME280;47212;41.326;2.104;2024-01-11T15:44:51;101873.69;;;12.83;56.06
61337;BME280;47212;41.326;2.104;2024-01-11T15:50:01;101882.97;;;12.65;55.63
61337;BME280;47212;41.326;2.104;2024-01-11T15:55:15;101887.59;;;12.48;56.37
61337;BME280;47212;41.326;2.104;2024-01-11T16:00:23;101895.44;;;12.28;56.04
61337;BME280;47212;41.326;2.104;2024-01-11T16:05:28;101903.44;;;12.18;55.73
61337;BME280;47212;41.326;2.104;2024-01-11T16:10:34;101910.81;;;12.05;56.57
61337;BME280;47212;41.326;2.104;2024-01-11T16:15:40;101908.97;;;11.94;56.67
61337;BME280;47212;41.326;2.104;2024-01-11T16:20:46;101916.94;;;11.84;56.20
61337;BME280;47212;41.326;2.104;2024-01-11T16:25:55;101924.88;;;11.74;56.50
61337;BME280;47212;41.326;2.104;2024-01-11T16:31:02;101925.16;;;11.61;57.07
61337;BME280;47212;41.326;2.104;2024-01-11T16:36:14;101929.81;;;11.48;56.61
61337;BME280;47212;41.326;2.104;2024-01-11T16:41:22;101938.25;;;11.35;57.39
61337;BME280;47212;41.326;2.104;2024-01-11T16:46:30;101950.06;;;11.17;56.60
61337;BME280;47212;41.326;2.104;2024-01-11T16:51:45;101958.72;;;11.03;57.43
61337;BME280;47212;41.326;2.104;2024-01-11T16:56:55;101970.66;;;10.90;57.17
61337;BME280;47212;41.326;2.104;2024-01-11T17:02:23;101970.16;;;10.81;57.51
61337;BME280;47212;41.326;2.104;2024-01-11T17:07:40;101979.28;;;10.75;57.78
61337;BME280;47212;41.326;2.104;2024-01-11T17:12:55;101985.66;;;10.69;58.05
61337;BME280;47212;41.326;2.104;2024-01-11T17:18:10;102001.25;;;10.62;58.28
61337;BME280;47212;41.326;2.104;2024-01-11T17:23:19;101999.94;;;10.53;57.84
61337;BME280;47212;41.326;2.104;2024-01-11T17:28:24;102006.31;;;10.47;58.85
61337;BME280;47212;41.326;2.104;2024-01-11T17:33:30;102013.03;;;10.44;58.77
61337;BME280;47212;41.326;2.104;2024-01-11T17:38:37;102014.56;;;10.40;58.79
61337;BME280;47212;41.326;2.104;2024-01-11T17:43:45;102015.22;;;10.36;59.35
61337;BME280;47212;41.326;2.104;2024-01-11T17:49:23;102008.81;;;10.30;59.19
61337;BME280;47212;41.326;2.104;2024-01-11T17:54:30;102017.44;;;10.27;58.95
61337;BME280;47212;41.326;2.104;2024-01-11T17:59:46;102022.28;;;10.25;59.52
61337;BME280;47212;41.326;2.104;2024-01-11T18:05:03;102025.44;;;10.22;59.41
61337;BME280;47212;41.326;2.104;2024-01-11T18:10:09;102037.41;;;10.21;59.85
61337;BME280;47212;41.326;2.104;2024-01-11T18:15:20;102040.75;;;10.16;59.52
61337;BME280;47212;41.326;2.104;2024-01-11T18:20:44;102037.66;;;10.13;59.24
61337;BME280;47212;41.326;2.104;2024-01-11T18:25:57;102050.75;;;10.04;59.55
61337;BME280;47212;41.326;2.104;2024-01-11T18:31:14;102054.59;;;9.97;59.64
61337;BME280;47212;41.326;2.104;2024-01-11T18:36:20;102047.34;;;9.90;59.34
61337;BME280;47212;41.326;2.104;2024-01-11T18:41:32;102044.69;;;9.84;59.75
61337;BME280;47212;41.326;2.104;2024-01-11T18:46:41;102052.69;;;9.79;59.91
61337;BME280;47212;41.326;2.104;2024-01-11T18:51:47;102065.53;;;9.72;60.09
61337;BME280;47212;41.326;2.104;2024-01-11T18:57:03;102068.78;;;9.62;60.03
61337;BME280;47212;41.326;2.104;2024-01-11T19:02:24;102075.47;;;9.60;60.19
61337;BME280;47212;41.326;2.104;2024-01-11T19:07:29;102071.97;;;9.52;60.53
61337;BME280;47212;41.326;2.104;2024-01-11T19:12:41;102076.84;;;9.44;60.71
61337;BME280;47212;41.326;2.104;2024-01-11T19:17:43;102086.94;;;9.37;60.48
61337;BME280;47212;41.326;2.104;2024-01-11T19:22:56;102084.66;;;9.34;60.33
61337;BME280;47212;41.326;2.104;2024-01-11T19:28:25;102082.19;;;9.32;60.74
61337;BME280;47212;41.326;2.104;2024-01-11T19:33:44;102085.13;;;9.31;60.61
61337;BME280;47212;41.326;2.104;2024-01-11T19:38:57;102090.16;;;9.27;61.07
61337;BME280;47212;41.326;2.104;2024-01-11T19:44:08;102093.94;;;9.26;61.11
61337;BME280;47212;41.326;2.104;2024-01-11T19:49:11;102102.31;;;9.24;61.15
61337;BME280;47212;41.326;2.104;2024-01-11T19:54:23;102107.72;;;9.24;61.36
61337;BME280;47212;41.326;2.104;2024-01-11T19:59:33;102110.22;;;9.26;61.12
61337;BME280;47212;41.326;2.104;2024-01-11T20:04:41;102108.72;;;9.30;61.13
61337;BME280;47212;41.326;2.104;2024-01-11T20:09:54;102115.84;;;9.31;61.08
61337;BME280;47212;41.326;2.104;2024-01-11T20:15:14;102114.34;;;9.35;60.80
61337;BME280;47212;41.326;2.104;2024-01-11T20:20:27;102118.94;;;9.35;60.19
61337;BME280;47212;41.326;2.104;2024-01-11T20:25:38;102120.22;;;9.32;60.07
61337;BME280;47212;41.326;2.104;2024-01-11T20:31:00;102115.22;;;9.29;60.03
61337;BME280;47212;41.326;2.104;2024-01-11T20:36:06;102137.41;;;9.26;59.90
61337;BME280;47212;41.326;2.104;2024-01-11T20:41:11;102138.28;;;9.20;60.04
61337;BME280;47212;41.326;2.104;2024-01-11T20:46:24;102146.88;;;9.17;59.72
61337;BME280;47212;41.326;2.104;2024-01-11T20:51:33;102151.28;;;9.11;60.59
61337;BME280;47212;41.326;2.104;2024-01-11T20:56:55;102154.66;;;9.07;61.32
61337;BME280;47212;41.326;2.104;2024-01-11T21:02:26;102156.16;;;9.03;61.25
61337;BME280;47212;41.326;2.104;2024-01-11T21:07:31;102170.78;;;9.02;61.49
61337;BME280;47212;41.326;2.104;2024-01-11T21:12:35;102173.50;;;9.02;61.55
61337;BME280;47212;41.326;2.104;2024-01-11T21:17:37;102181.84;;;9.00;61.74
61337;BME280;47212;41.326;2.104;2024-01-11T21:22:56;102193.56;;;9.01;61.29
61337;BME280;47212;41.326;2.104;2024-01-11T21:28:05;102200.03;;;9.00;61.52
61337;BME280;47212;41.326;2.104;2024-01-11T21:33:14;102195.66;;;8.99;61.96
61337;BME280;47212;41.326;2.104;2024-01-11T21:38:21;102186.88;;;8.97;62.06
61337;BME280;47212;41.326;2.104;2024-01-11T21:43:33;102183.56;;;8.94;62.21
61337;BME280;47212;41.326;2.104;2024-01-11T21:48:46;102194.84;;;8.91;61.90
61337;BME280;47212;41.326;2.104;2024-01-11T21:53:57;102192.75;;;8.93;61.58
61337;BME280;47212;41.326;2.104;2024-01-11T21:59:00;102197.78;;;8.90;61.83
61337;BME280;47212;41.326;2.104;2024-01-11T22:04:09;102205.31;;;8.88;62.64
61337;BME280;47212;41.326;2.104;2024-01-11T22:09:43;102210.97;;;8.86;63.36
61337;BME280;47212;41.326;2.104;2024-01-11T22:14:54;102209.72;;;8.82;62.99
61337;BME280;47212;41.326;2.104;2024-01-11T22:19:58;102194.06;;;8.78;63.20
61337;BME280;47212;41.326;2.104;2024-01-11T22:25:07;102195.34;;;8.75;64.06
61337;BME280;47212;41.326;2.104;2024-01-11T22:30:30;102205.97;;;8.77;63.55
61337;BME280;47212;41.326;2.104;2024-01-11T22:35:36;102206.41;;;8.74;63.45
61337;BME280;47212;41.326;2.104;2024-01-11T22:40:53;102211.22;;;8.72;62.92
61337;BME280;47212;41.326;2.104;2024-01-11T22:46:12;102204.13;;;8.71;63.72
61337;BME280;47212;41.326;2.104;2024-01-11T22:51:35;102203.91;;;8.72;63.13
61337;BME280;47212;41.326;2.104;2024-01-11T22:56:46;102204.97;;;8.71;63.17
61337;BME280;47212;41.326;2.104;2024-01-11T23:01:56;102210.81;;;8.68;63.11
61337;BME280;47212;41.326;2.104;2024-01-11T23:07:05;102203.50;;;8.69;63.11
61337;BME280;47212;41.326;2.104;2024-01-11T23:12:19;102209.78;;;8.69;63.27
61337;BME280;47212;41.326;2.104;2024-01-11T23:17:25;102202.25;;;8.71;62.87
61337;BME280;47212;41.326;2.104;2024-01-11T23:22:39;102207.47;;;8.73;63.37
61337;BME280;47212;41.326;2.104;2024-01-11T23:27:43;102198.47;;;8.72;63.48
61337;BME280;47212;41.326;2.104;2024-01-11T23:32:52;102199.53;;;8.71;63.60
61337;BME280;47212;41.326;2.104;2024-01-11T23:37:57;102197.88;;;8.70;63.42
61337;BME280;47212;41.326;2.104;2024-01-11T23:43:02;102209.56;;;8.71;63.46
61337;BME280;47212;41.326;2.104;2024-01-11T23:48:13;102200.78;;;8.69;63.20
61337;BME280;47212;41.326;2.104;2024-01-11T23:53:18;102199.75;;;8.63;63.37
61337;BME280;47212;41.326;2.104;2024-01-11T23:58:30;102196.63;;;8.59;63.56
